createdAt,value
2022-10-19T00:00:50.547Z,102003.19
2022-10-19T00:03:22.401Z,102011.13
2022-10-19T00:05:51.187Z,102011.94
2022-10-19T00:08:18.963Z,102006.59
2022-10-19T00:10:46.763Z,102012.69
2022-10-19T00:13:14.552Z,102012.03
2022-10-19T00:15:42.446Z,102005.53
2022-10-19T00:18:10.389Z,102004.03
2022-10-19T00:20:39.521Z,102007.53
2022-10-19T00:23:07.269Z,102014.59
2022-10-19T00:25:35.111Z,102012.53
2022-10-19T00:28:02.958Z,102012.44
2022-10-19T00:30:30.807Z,102009.13
2022-10-19T00:32:58.617Z,102009.41
2022-10-19T00:35:26.466Z,102006.56
2022-10-19T00:37:55.642Z,102008.84
2022-10-19T00:40:23.525Z,102008.66
2022-10-19T00:42:56.144Z,102007.81
2022-10-19T00:45:23.989Z,102011.09
2022-10-19T00:47:51.902Z,102007.13
2022-10-19T00:50:20.128Z,102009.88
2022-10-19T00:52:48.082Z,102012.22
2022-10-19T00:55:18.874Z,102019.94
2022-10-19T00:57:47.097Z,102009.78
2022-10-19T01:00:15.262Z,102019.41
2022-10-19T01:02:43.126Z,102016.00
2022-10-19T01:05:12.334Z,102013.75
2022-10-19T01:07:40.433Z,102014.41
2022-10-19T01:10:09.598Z,102010.63
2022-10-19T01:12:59.427Z,102011.19
2022-10-19T01:15:35.310Z,102008.06
2022-10-19T01:18:11.175Z,102005.63
2022-10-19T01:21:09.620Z,102006.22
2022-10-19T01:24:14.784Z,101999.13
2022-10-19T01:27:27.252Z,101995.16
2022-10-19T01:30:15.731Z,101989.72
2022-10-19T01:32:54.049Z,101987.34
2022-10-19T01:35:28.615Z,101984.59
2022-10-19T01:38:06.834Z,101986.19
2022-10-19T01:40:45.326Z,101989.06
2022-10-19T01:43:22.387Z,101984.44
2022-10-19T01:45:56.078Z,101983.94
2022-10-19T01:48:27.923Z,101983.00
2022-10-19T01:51:00.978Z,101996.88
2022-10-19T01:53:34.253Z,101997.63
2022-10-19T01:56:04.319Z,101987.44
2022-10-19T01:58:37.054Z,101979.06
2022-10-19T02:03:43.304Z,101988.13
2022-10-19T02:06:14.003Z,101977.91
2022-10-19T02:08:47.070Z,101981.69
2022-10-19T02:11:15.506Z,101983.66
2022-10-19T02:13:45.638Z,101984.03
2022-10-19T02:16:20.300Z,101974.16
2022-10-19T02:18:51.993Z,101966.25
2022-10-19T02:21:20.391Z,101963.19
2022-10-19T02:23:49.366Z,101965.09
2022-10-19T02:26:19.813Z,101968.78
2022-10-19T02:28:48.138Z,101968.94
2022-10-19T02:31:17.594Z,101977.72
2022-10-19T02:33:45.418Z,101976.22
2022-10-19T02:36:13.482Z,101975.78
2022-10-19T02:38:42.033Z,101978.22
2022-10-19T02:41:17.113Z,101978.09
2022-10-19T02:43:49.985Z,101971.50
2022-10-19T02:46:24.383Z,101983.50
2022-10-19T02:48:52.808Z,101972.38
2022-10-19T02:51:35.511Z,101972.28
2022-10-19T02:54:05.413Z,101978.78
2022-10-19T02:56:34.554Z,101986.22
2022-10-19T02:59:02.856Z,101977.81
2022-10-19T03:01:31.964Z,101974.75
2022-10-19T03:03:59.746Z,101972.38
2022-10-19T03:06:27.498Z,101971.34
2022-10-19T03:08:55.332Z,101973.31
2022-10-19T03:11:23.197Z,101973.31
2022-10-19T03:13:51.052Z,101982.16
2022-10-19T03:16:18.834Z,101986.28
2022-10-19T03:18:49.181Z,101977.53
2022-10-19T03:21:17.588Z,101981.47
2022-10-19T03:23:45.677Z,101986.66
2022-10-19T03:26:16.844Z,101987.53
2022-10-19T03:28:44.679Z,101991.38
2022-10-19T03:31:12.728Z,101987.31
2022-10-19T03:33:40.497Z,101990.31
2022-10-19T03:36:18.033Z,101996.31
2022-10-19T03:38:45.967Z,101993.50
2022-10-19T03:41:14.002Z,101995.97
2022-10-19T03:43:42.075Z,101993.13
2022-10-19T03:46:10.440Z,101999.44
2022-10-19T03:48:38.340Z,101998.41
2022-10-19T03:51:08.275Z,102000.47
2022-10-19T03:53:37.971Z,102001.50
2022-10-19T03:56:07.490Z,101997.56
2022-10-19T03:58:36.970Z,102004.72
2022-10-19T04:01:09.186Z,102012.06
2022-10-19T04:03:37.026Z,102004.81
2022-10-19T04:06:05.503Z,102009.47
2022-10-19T04:08:33.500Z,102012.22
2022-10-19T04:11:03.465Z,102005.91
2022-10-19T04:13:32.306Z,102002.72
2022-10-19T04:16:00.405Z,102007.34
2022-10-19T04:18:30.101Z,102008.56
2022-10-19T04:20:58.465Z,102015.56
2022-10-19T04:23:28.275Z,102020.34
2022-10-19T04:26:01.126Z,102030.03
2022-10-19T04:28:30.437Z,102030.31
2022-10-19T04:30:58.405Z,102029.47
2022-10-19T04:33:26.215Z,102033.81
2022-10-19T04:35:59.242Z,102023.59
2022-10-19T04:38:27.312Z,102030.56
2022-10-19T04:40:55.940Z,102030.25
2022-10-19T04:43:24.169Z,102028.94
2022-10-19T04:45:53.280Z,102032.28
2022-10-19T04:48:21.031Z,102033.41
2022-10-19T04:50:48.805Z,102035.28
2022-10-19T04:53:21.067Z,102036.78
2022-10-19T04:55:49.030Z,102044.78
2022-10-19T04:58:16.839Z,102038.28
2022-10-19T05:00:44.737Z,102046.00
2022-10-19T05:03:13.943Z,102055.44
2022-10-19T05:05:41.965Z,102049.22
2022-10-19T05:08:10.411Z,102042.25
2022-10-19T05:10:38.739Z,102049.28
2022-10-19T05:13:06.610Z,102051.38
2022-10-19T05:15:34.465Z,102054.84
2022-10-19T05:18:02.223Z,102054.84
2022-10-19T05:20:31.320Z,102069.97
2022-10-19T05:23:02.002Z,102064.97
2022-10-19T05:25:31.061Z,102064.75
2022-10-19T05:27:59.008Z,102061.69
2022-10-19T05:30:26.806Z,102066.03
2022-10-19T05:32:54.635Z,102052.09
2022-10-19T05:35:22.911Z,102052.94
2022-10-19T05:37:56.388Z,102059.94
2022-10-19T05:40:24.608Z,102054.66
2022-10-19T05:42:52.367Z,102065.09
2022-10-19T05:45:20.120Z,102071.41
2022-10-19T05:47:48.143Z,102076.91
2022-10-19T05:50:16.115Z,102071.81
2022-10-19T05:52:44.018Z,102077.16
2022-10-19T05:55:13.179Z,102077.44
2022-10-19T05:57:40.967Z,102075.53
2022-10-19T06:00:10.347Z,102069.28
2022-10-19T06:02:41.082Z,102072.84
2022-10-19T06:05:09.173Z,102073.53
2022-10-19T06:07:37.212Z,102077.09
2022-10-19T06:10:05.752Z,102062.88
2022-10-19T06:12:34.946Z,102075.66
2022-10-19T06:15:02.789Z,102080.31
2022-10-19T06:17:30.954Z,102080.03
2022-10-19T06:19:59.031Z,102082.44
2022-10-19T06:22:26.811Z,102094.00
2022-10-19T06:24:55.337Z,102090.59
2022-10-19T06:27:23.587Z,102095.19
2022-10-19T06:29:52.780Z,102092.13
2022-10-19T06:32:20.590Z,102090.53
2022-10-19T06:34:49.347Z,102086.00
2022-10-19T06:37:17.871Z,102085.38
2022-10-19T06:39:45.727Z,102090.16
2022-10-19T06:42:13.555Z,102090.31
2022-10-19T06:44:41.714Z,102089.28
2022-10-19T06:47:10.917Z,102097.00
2022-10-19T06:49:38.695Z,102094.47
2022-10-19T06:52:07.603Z,102088.31
2022-10-19T06:54:35.401Z,102094.16
2022-10-19T06:57:03.216Z,102095.75
2022-10-19T06:59:30.964Z,102102.47
2022-10-19T07:01:58.728Z,102103.25
2022-10-19T07:04:27.861Z,102106.81
2022-10-19T07:06:55.695Z,102102.72
2022-10-19T07:09:23.557Z,102105.44
2022-10-19T07:11:54.066Z,102112.25
2022-10-19T07:14:24.223Z,102117.00
2022-10-19T07:16:52.383Z,102122.53
2022-10-19T07:19:20.182Z,102122.53
2022-10-19T07:21:51.619Z,102124.41
2022-10-19T07:24:20.282Z,102134.69
2022-10-19T07:26:48.167Z,102131.44
2022-10-19T07:29:16.115Z,102134.94
2022-10-19T07:31:44.201Z,102137.38
2022-10-19T07:34:14.163Z,102142.22
2022-10-19T07:36:45.172Z,102143.69
2022-10-19T07:39:16.833Z,102143.69
2022-10-19T07:41:45.197Z,102133.28
2022-10-19T07:44:15.674Z,102137.06
2022-10-19T07:46:44.399Z,102141.66
2022-10-19T07:49:16.201Z,102144.97
2022-10-19T07:51:44.059Z,102147.25
2022-10-19T07:54:12.226Z,102153.88
2022-10-19T07:56:41.519Z,102151.59
2022-10-19T07:59:10.292Z,102158.72
2022-10-19T08:01:41.917Z,102155.72
2022-10-19T08:06:57.582Z,102158.44
2022-10-19T08:09:51.509Z,102153.69
2022-10-19T08:12:15.632Z,102164.91
2022-10-19T08:14:43.683Z,102169.16
2022-10-19T08:17:16.530Z,102163.91
2022-10-19T08:19:44.487Z,102166.81
2022-10-19T08:22:14.255Z,102177.16
2022-10-19T08:24:42.128Z,102166.28
2022-10-19T08:27:09.950Z,102168.75
2022-10-19T08:29:39.236Z,102169.81
2022-10-19T08:32:07.131Z,102170.72
2022-10-19T08:34:34.994Z,102171.19
2022-10-19T08:37:10.188Z,102172.63
2022-10-19T08:39:48.228Z,102176.22
2022-10-19T08:42:20.572Z,102174.88
2022-10-19T08:45:18.862Z,102175.56
2022-10-19T08:47:59.144Z,102178.66
2022-10-19T08:50:30.093Z,102179.38
2022-10-19T08:53:02.849Z,102173.06
2022-10-19T08:55:42.373Z,102170.56
2022-10-19T08:58:25.156Z,102174.50
2022-10-19T09:01:01.412Z,102175.09
2022-10-19T09:03:55.872Z,102168.91
2022-10-19T09:06:27.167Z,102181.66
2022-10-19T09:08:56.698Z,102186.28
2022-10-19T09:11:30.054Z,102186.72
2022-10-19T09:14:07.726Z,102190.63
2022-10-19T09:16:37.077Z,102184.19
2022-10-19T09:19:13.568Z,102192.91
2022-10-19T09:21:47.895Z,102199.31
2022-10-19T09:24:35.779Z,102194.44
2022-10-19T09:27:03.951Z,102191.66
2022-10-19T09:29:39.915Z,102196.94
2022-10-19T09:32:15.284Z,102203.78
2022-10-19T09:34:46.329Z,102199.75
2022-10-19T09:37:21.153Z,102202.22
2022-10-19T09:39:55.137Z,102206.84
2022-10-19T09:42:28.973Z,102211.31
2022-10-19T09:44:59.587Z,102207.03
2022-10-19T09:47:37.017Z,102204.91
2022-10-19T09:50:16.125Z,102205.91
2022-10-19T09:52:45.572Z,102214.13
2022-10-19T09:55:36.833Z,102228.13
2022-10-19T09:58:07.774Z,102227.34
2022-10-19T10:00:39.451Z,102220.28
2022-10-19T10:03:09.480Z,102217.25
2022-10-19T10:05:39.471Z,102220.47
2022-10-19T10:08:15.427Z,102228.78
2022-10-19T10:11:04.829Z,102226.25
2022-10-19T10:13:38.669Z,102220.19
2022-10-19T10:16:09.774Z,102219.63
2022-10-19T10:21:48.327Z,102219.13
2022-10-19T10:24:19.694Z,102222.03
2022-10-19T10:26:49.709Z,102221.22
2022-10-19T10:29:20.652Z,102221.72
2022-10-19T10:31:52.259Z,102215.75
2022-10-19T10:34:38.780Z,102218.88
2022-10-19T10:37:21.769Z,102228.59
2022-10-19T10:39:52.684Z,102228.88
2022-10-19T10:42:30.826Z,102234.06
2022-10-19T10:45:01.914Z,102227.94
2022-10-19T10:47:30.921Z,102218.09
2022-10-19T10:50:02.791Z,102221.69
2022-10-19T10:52:31.973Z,102230.09
2022-10-19T10:55:02.981Z,102212.34
2022-10-19T10:57:35.111Z,102219.00
2022-10-19T11:00:11.147Z,102228.50
2022-10-19T11:02:46.374Z,102224.75
2022-10-19T11:05:20.672Z,102222.88
2022-10-19T11:07:53.894Z,102214.00
2022-10-19T11:10:27.973Z,102226.56
2022-10-19T11:13:04.554Z,102225.16
2022-10-19T11:15:38.654Z,102222.69
2022-10-19T11:18:20.532Z,102211.41
2022-10-19T11:20:59.041Z,102219.84
2022-10-19T11:23:39.485Z,102220.88
2022-10-19T11:26:18.469Z,102217.66
2022-10-19T11:29:03.621Z,102220.41
2022-10-19T11:31:39.744Z,102219.03
2022-10-19T11:34:16.425Z,102227.19
2022-10-19T11:36:54.788Z,102221.81
2022-10-19T11:39:36.713Z,102214.63
2022-10-19T11:42:14.392Z,102215.34
2022-10-19T11:44:52.436Z,102208.03
2022-10-19T11:47:35.843Z,102210.75
2022-10-19T11:50:14.787Z,102205.47
2022-10-19T11:52:53.144Z,102199.81
2022-10-19T11:55:38.613Z,102210.47
2022-10-19T11:58:31.146Z,102204.25
2022-10-19T12:01:20.567Z,102207.66
2022-10-19T12:04:06.326Z,102201.84
2022-10-19T12:06:44.934Z,102196.00
2022-10-19T12:09:33.915Z,102203.41
2022-10-19T12:12:12.383Z,102202.03
2022-10-19T12:14:42.529Z,102197.91
2022-10-19T12:17:15.542Z,102205.44
2022-10-19T12:19:48.995Z,102200.47
2022-10-19T12:22:21.999Z,102201.19
2022-10-19T12:24:53.329Z,102196.94
2022-10-19T12:27:28.152Z,102190.66
2022-10-19T12:29:59.456Z,102192.41
2022-10-19T12:32:29.210Z,102186.53
2022-10-19T12:35:03.298Z,102190.56
2022-10-19T12:37:42.908Z,102181.38
2022-10-19T12:40:25.398Z,102177.97
2022-10-19T12:43:01.584Z,102185.44
2022-10-19T12:45:33.465Z,102182.19
2022-10-19T12:48:19.840Z,102178.50
2022-10-19T12:51:03.842Z,102183.72
2022-10-19T12:53:36.003Z,102181.47
2022-10-19T12:56:07.964Z,102178.44
2022-10-19T12:58:44.961Z,102174.88
2022-10-19T13:01:21.058Z,102178.44
2022-10-19T13:03:51.625Z,102185.41
2022-10-19T13:06:32.389Z,102176.78
2022-10-19T13:09:03.141Z,102168.72
2022-10-19T13:11:32.859Z,102168.41
2022-10-19T13:14:03.831Z,102169.97
2022-10-19T13:16:42.012Z,102168.22
2022-10-19T13:19:20.836Z,102168.53
2022-10-19T13:22:21.488Z,102162.34
2022-10-19T13:25:26.865Z,102157.94
2022-10-19T13:28:01.097Z,102158.25
2022-10-19T13:31:09.294Z,102154.94
2022-10-19T13:33:45.889Z,102151.56
2022-10-19T13:36:14.981Z,102148.50
2022-10-19T13:38:45.390Z,102147.13
2022-10-19T13:41:16.929Z,102144.56
2022-10-19T13:44:03.840Z,102136.94
2022-10-19T13:46:50.140Z,102135.16
2022-10-19T13:49:37.449Z,102134.84
2022-10-19T13:52:22.959Z,102134.59
2022-10-19T13:55:09.292Z,102133.97
2022-10-19T13:57:56.112Z,102131.53
2022-10-19T14:00:31.417Z,102138.53
2022-10-19T14:03:27.212Z,102136.19
2022-10-19T14:06:08.766Z,102133.09
2022-10-19T14:08:56.331Z,102131.72
2022-10-19T14:11:28.714Z,102135.75
2022-10-19T14:14:16.086Z,102137.84
2022-10-19T14:16:56.089Z,102136.00
2022-10-19T14:19:30.190Z,102132.06
2022-10-19T14:22:00.544Z,102127.31
2022-10-19T14:24:31.791Z,102123.47
2022-10-19T14:27:01.787Z,102129.50
2022-10-19T14:29:30.292Z,102132.53
2022-10-19T14:32:01.082Z,102126.81
2022-10-19T14:34:29.275Z,102128.44
2022-10-19T14:36:57.236Z,102119.34
2022-10-19T14:39:31.452Z,102125.06
2022-10-19T14:42:45.729Z,102124.84
2022-10-19T14:45:16.806Z,102114.91
2022-10-19T14:48:01.163Z,102112.97
2022-10-19T14:50:35.184Z,102116.03
2022-10-19T14:53:14.861Z,102117.44
2022-10-19T14:55:43.697Z,102114.59
2022-10-19T14:58:14.774Z,102124.22
2022-10-19T15:00:44.207Z,102119.56
2022-10-19T15:03:21.645Z,102104.50
2022-10-19T15:05:53.076Z,102110.78
2022-10-19T15:08:25.635Z,102115.72
2022-10-19T15:10:54.025Z,102112.91
2022-10-19T15:13:26.277Z,102120.72
2022-10-19T15:15:55.689Z,102115.00
2022-10-19T15:18:47.557Z,102112.53
2022-10-19T15:21:19.315Z,102111.25
2022-10-19T15:23:48.738Z,102106.28
2022-10-19T15:26:20.745Z,102112.53
2022-10-19T15:28:49.909Z,102117.44
2022-10-19T15:31:20.012Z,102118.50
2022-10-19T15:33:54.139Z,102114.66
2022-10-19T15:36:23.965Z,102111.31
2022-10-19T15:39:17.578Z,102118.66
2022-10-19T15:41:50.715Z,102127.47
2022-10-19T15:44:33.861Z,102123.00
2022-10-19T15:47:21.035Z,102124.63
2022-10-19T15:50:01.793Z,102127.81
2022-10-19T15:52:31.061Z,102124.44
2022-10-19T15:55:00.799Z,102125.00
2022-10-19T15:57:32.181Z,102127.91
2022-10-19T16:00:02.431Z,102126.22
2022-10-19T16:02:32.064Z,102122.53
2022-10-19T16:05:01.338Z,102130.16
2022-10-19T16:07:32.530Z,102130.50
2022-10-19T16:10:00.698Z,102140.47
2022-10-19T16:12:28.671Z,102129.25
2022-10-19T16:14:56.500Z,102126.28
2022-10-19T16:17:24.631Z,102134.06
2022-10-19T16:19:52.439Z,102130.75
2022-10-19T16:22:21.732Z,102134.06
2022-10-19T16:24:49.584Z,102133.34
2022-10-19T16:27:17.532Z,102137.75
2022-10-19T16:29:45.761Z,102143.91
2022-10-19T16:32:13.768Z,102148.50
2022-10-19T16:34:42.171Z,102143.78
2022-10-19T16:37:11.935Z,102147.44
2022-10-19T16:39:43.476Z,102146.84
2022-10-19T16:42:11.369Z,102145.94
2022-10-19T16:44:39.428Z,102144.13
2022-10-19T16:47:16.998Z,102145.53
2022-10-19T16:49:46.973Z,102152.03
2022-10-19T16:52:15.153Z,102155.53
2022-10-19T16:54:44.406Z,102147.81
2022-10-19T16:57:12.231Z,102155.19
2022-10-19T16:59:40.150Z,102156.56
2022-10-19T17:02:08.385Z,102160.22
2022-10-19T17:04:39.070Z,102159.53
2022-10-19T17:07:07.026Z,102165.13
2022-10-19T17:09:41.812Z,102161.41
2022-10-19T17:12:13.907Z,102170.13
2022-10-19T17:14:43.412Z,102170.50
2022-10-19T17:17:12.788Z,102160.53
2022-10-19T17:19:40.803Z,102175.63
2022-10-19T17:22:16.019Z,102168.97
2022-10-19T17:24:46.217Z,102177.50
2022-10-19T17:27:15.535Z,102177.88
2022-10-19T17:29:43.518Z,102191.09
2022-10-19T17:32:11.359Z,102184.75
2022-10-19T17:34:39.287Z,102189.44
2022-10-19T17:37:39.752Z,102188.69
2022-10-19T17:40:09.025Z,102179.63
2022-10-19T17:42:38.208Z,102186.09
2022-10-19T17:45:06.824Z,102179.72
2022-10-19T17:47:39.407Z,102188.03
2022-10-19T17:50:07.947Z,102181.47
2022-10-19T17:52:35.945Z,102188.88
2022-10-19T17:55:12.608Z,102186.81
2022-10-19T17:57:42.678Z,102183.69
2022-10-19T18:00:11.639Z,102191.22
2022-10-19T18:02:45.605Z,102186.34
2022-10-19T18:05:13.502Z,102196.84
2022-10-19T18:07:44.166Z,102192.03
2022-10-19T18:10:12.068Z,102188.41
2022-10-19T18:12:39.928Z,102190.53
2022-10-19T18:15:10.164Z,102188.94
2022-10-19T18:17:38.763Z,102194.72
2022-10-19T18:20:07.958Z,102189.66
2022-10-19T18:22:35.918Z,102186.69
2022-10-19T18:25:03.774Z,102184.91
2022-10-19T18:27:31.608Z,102187.69
2022-10-19T18:29:59.535Z,102191.75
2022-10-19T18:32:28.714Z,102191.75
2022-10-19T18:34:56.541Z,102190.03
2022-10-19T18:37:24.348Z,102193.16
2022-10-19T18:39:52.201Z,102193.88
2022-10-19T18:42:20.224Z,102200.03
2022-10-19T18:44:48.311Z,102192.16
2022-10-19T18:47:16.237Z,102193.16
2022-10-19T18:49:45.715Z,102203.91
2022-10-19T18:52:13.606Z,102205.91
2022-10-19T18:54:42.919Z,102206.03
2022-10-19T18:57:10.816Z,102199.97
2022-10-19T18:59:39.161Z,102199.41
2022-10-19T19:02:13.634Z,102194.63
2022-10-19T19:04:52.034Z,102193.50
2022-10-19T19:07:20.024Z,102188.44
2022-10-19T19:09:47.980Z,102191.88
2022-10-19T19:12:16.023Z,102184.31
2022-10-19T19:14:45.180Z,102192.44
2022-10-19T19:17:20.085Z,102192.72
2022-10-19T19:19:48.035Z,102191.88
2022-10-19T19:22:20.329Z,102184.75
2022-10-19T19:24:51.195Z,102187.91
2022-10-19T19:27:21.980Z,102190.69
2022-10-19T19:29:50.515Z,102190.09
2022-10-19T19:32:18.594Z,102190.91
2022-10-19T19:34:46.523Z,102191.00
2022-10-19T19:37:15.372Z,102197.13
2022-10-19T19:39:44.884Z,102198.66
2022-10-19T19:42:13.026Z,102194.16
2022-10-19T19:44:44.040Z,102195.91
2022-10-19T19:47:19.318Z,102191.19
2022-10-19T19:49:47.259Z,102192.56
2022-10-19T19:52:15.143Z,102188.34
2022-10-19T19:54:44.373Z,102188.13
2022-10-19T19:57:12.424Z,102186.53
2022-10-19T19:59:40.205Z,102194.00
2022-10-19T20:02:11.925Z,102187.22
2022-10-19T20:04:40.003Z,102189.75
2022-10-19T20:07:08.049Z,102192.56
2022-10-19T20:09:35.920Z,102192.22
2022-10-19T20:12:05.508Z,102194.91
2022-10-19T20:14:33.502Z,102196.53
2022-10-19T20:17:01.453Z,102203.22
2022-10-19T20:19:29.449Z,102197.31
2022-10-19T20:22:00.106Z,102198.28
2022-10-19T20:24:27.963Z,102200.19
2022-10-19T20:26:56.697Z,102199.19
2022-10-19T20:29:26.028Z,102191.47
2022-10-19T20:31:53.825Z,102194.56
2022-10-19T20:34:23.916Z,102203.06
2022-10-19T20:36:52.110Z,102204.66
2022-10-19T20:39:19.923Z,102209.97
2022-10-19T20:41:47.780Z,102213.72
2022-10-19T20:44:15.605Z,102209.84
2022-10-19T20:46:44.857Z,102213.50
2022-10-19T20:49:13.601Z,102209.91
2022-10-19T20:51:41.526Z,102212.94
2022-10-19T20:54:12.518Z,102213.53
2022-10-19T20:56:42.496Z,102214.06
2022-10-19T20:59:15.603Z,102213.44
2022-10-19T21:01:53.420Z,102224.28
2022-10-19T21:04:21.435Z,102224.03
2022-10-19T21:06:51.063Z,102219.22
2022-10-19T21:09:21.054Z,102222.59
2022-10-19T21:11:50.425Z,102218.06
2022-10-19T21:14:23.740Z,102216.09
2022-10-19T21:16:57.610Z,102219.56
2022-10-19T21:19:27.415Z,102220.13
2022-10-19T21:21:57.426Z,102217.66
2022-10-19T21:24:27.620Z,102216.88
2022-10-19T21:26:55.805Z,102215.25
2022-10-19T21:29:23.626Z,102217.31
2022-10-19T21:31:53.484Z,102221.63
2022-10-19T21:34:27.601Z,102208.63
2022-10-19T21:36:56.001Z,102212.84
2022-10-19T21:39:23.957Z,102214.75
2022-10-19T21:41:52.239Z,102203.13
2022-10-19T21:44:22.873Z,102204.09
2022-10-19T21:47:14.629Z,102200.84
2022-10-19T21:49:43.731Z,102200.41
2022-10-19T21:52:15.970Z,102201.56
2022-10-19T21:54:44.076Z,102207.94
2022-10-19T21:57:11.901Z,102198.63
2022-10-19T21:59:39.699Z,102205.44
2022-10-19T22:02:07.503Z,102201.09
2022-10-19T22:04:35.287Z,102200.34
2022-10-19T22:07:05.341Z,102187.59
2022-10-19T22:09:33.609Z,102190.00
2022-10-19T22:12:01.428Z,102188.03
2022-10-19T22:14:29.247Z,102187.31
2022-10-19T22:16:57.034Z,102184.31
2022-10-19T22:19:26.282Z,102180.59
2022-10-19T22:21:54.074Z,102174.31
2022-10-19T22:24:23.199Z,102177.81
2022-10-19T22:26:51.735Z,102176.31
2022-10-19T22:29:19.580Z,102173.66
2022-10-19T22:31:47.477Z,102167.69
2022-10-19T22:34:16.855Z,102175.47
2022-10-19T22:36:45.520Z,102170.94
2022-10-19T22:39:14.139Z,102167.06
2022-10-19T22:41:43.392Z,102174.94
2022-10-19T22:44:11.277Z,102169.31
2022-10-19T22:46:39.135Z,102161.47
2022-10-19T22:49:07.015Z,102165.88
2022-10-19T22:51:34.834Z,102159.38
2022-10-19T22:54:02.770Z,102161.13
2022-10-19T22:56:30.567Z,102156.63
2022-10-19T22:59:01.526Z,102156.38
2022-10-19T23:01:29.424Z,102163.13
2022-10-19T23:04:00.355Z,102149.31
2022-10-19T23:06:28.323Z,102148.09
2022-10-19T23:08:56.236Z,102155.09
2022-10-19T23:11:24.631Z,102150.88
2022-10-19T23:13:52.511Z,102143.56
2022-10-19T23:16:21.671Z,102141.38
2022-10-19T23:18:49.489Z,102139.72
2022-10-19T23:21:17.226Z,102141.75
2022-10-19T23:23:45.102Z,102140.09
2022-10-19T23:26:15.105Z,102136.38
2022-10-19T23:28:44.997Z,102139.94
2022-10-19T23:31:15.055Z,102143.19
2022-10-19T23:33:45.011Z,102141.06
2022-10-19T23:36:15.193Z,102145.25
2022-10-19T23:38:43.750Z,102147.34
2022-10-19T23:41:12.045Z,102147.03
2022-10-19T23:43:39.891Z,102156.44
2022-10-19T23:46:08.050Z,102151.34
2022-10-19T23:48:36.317Z,102163.66
2022-10-19T23:51:07.843Z,102158.03
2022-10-19T23:53:40.724Z,102156.44
2022-10-19T23:56:11.396Z,102158.72
2022-10-19T23:58:39.152Z,102155.09
